Time;durP1;ratioP1;P1;durP2;ratioP2;P2;SDS_P1;SDS_P2;PMS_P1;PMS_P2;Temp;Humidity;BMP_temperature;BMP_pressure;BME280_temperature;BME280_humidity;BME280_pressure;Samples;Min_cycle;Max_cycle;Signal;HPM_P1;HPM_P2
2023/10/17 00:02:46;;;;;;;5.00;3.87;;;9.70;99.90;;;;;;5019507;28;20544;-86
2023/10/17 00:05:17;;;;;;;4.27;3.87;;;9.60;99.90;;;;;;5018535;28;20447;-86
2023/10/17 00:08:22;;;;;;;4.33;3.80;;;9.80;99.90;;;;;;5004477;28;20894;-84
2023/10/17 00:11:25;;;;;;;3.90;3.50;;;9.90;99.90;;;;;;5008452;28;21634;-85
2023/10/17 00:14:15;;;;;;;4.97;4.10;;;10.00;99.90;;;;;;5030893;28;20453;-86
2023/10/17 00:16:57;;;;;;;4.60;4.00;;;10.20;99.90;;;;;;5017625;28;21111;-84
2023/10/17 00:19:46;;;;;;;4.97;4.50;;;10.10;99.90;;;;;;5019204;28;20482;-87
2023/10/17 00:22:43;;;;;;;5.00;4.23;;;10.00;99.90;;;;;;5038471;28;20450;-82
2023/10/17 00:25:30;;;;;;;6.00;3.73;;;9.80;99.90;;;;;;5025333;28;20450;-85
2023/10/17 00:31:14;;;;;;;5.60;3.83;;;9.80;99.90;;;;;;5021682;28;20476;-85
2023/10/17 00:34:01;;;;;;;4.00;3.27;;;9.80;99.90;;;;;;5023109;28;20512;-83
2023/10/17 00:36:47;;;;;;;3.90;3.50;;;9.70;99.90;;;;;;5026376;28;20482;-84
2023/10/17 00:39:22;;;;;;;4.93;3.63;;;9.70;99.90;;;;;;5019938;28;20501;-84
2023/10/17 00:45:13;;;;;;;3.80;3.33;;;9.80;99.90;;;;;;5023136;28;20473;-85
2023/10/17 00:47:48;;;;;;;4.67;3.40;;;9.80;99.90;;;;;;5017321;28;20485;-85
2023/10/17 00:50:32;;;;;;;3.73;3.40;;;9.70;99.90;;;;;;5015619;28;20485;-83
2023/10/17 00:53:39;;;;;;;6.17;3.73;;;9.70;99.90;;;;;;5011306;28;20442;-84
2023/10/17 00:56:28;;;;;;;4.10;3.70;;;9.80;99.90;;;;;;5019247;28;21011;-85
2023/10/17 00:59:07;;;;;;;4.67;3.30;;;9.80;99.90;;;;;;5020253;28;20459;-85
2023/10/17 01:01:59;;;;;;;4.03;3.57;;;9.70;99.90;;;;;;5023656;28;20457;-84
2023/10/17 01:04:47;;;;;;;5.20;3.90;;;9.50;99.90;;;;;;5022763;28;20454;-85
2023/10/17 01:07:37;;;;;;;3.60;3.30;;;9.40;99.90;;;;;;5018746;28;20476;-85
2023/10/17 01:10:34;;;;;;;3.90;3.50;;;9.60;99.90;;;;;;5016647;28;21271;-84
2023/10/17 01:13:16;;;;;;;4.80;3.10;;;9.60;99.90;;;;;;5017064;28;20507;-85
2023/10/17 01:16:06;;;;;;;3.43;3.13;;;9.70;99.90;;;;;;5014324;28;20670;-86
2023/10/17 01:19:11;;;;;;;6.83;4.17;;;9.70;99.90;;;;;;5029037;28;20466;-83
2023/10/17 01:22:04;;;;;;;5.30;3.40;;;9.70;99.90;;;;;;5008934;28;20453;-84
2023/10/17 01:24:40;;;;;;;4.50;3.53;;;9.70;99.90;;;;;;5026533;28;20451;-84
2023/10/17 01:30:45;;;;;;;3.23;3.03;;;9.50;99.90;;;;;;5037187;28;20479;-85
2023/10/17 01:33:29;;;;;;;4.43;3.73;;;9.40;99.90;;;;;;5041743;28;20449;-86
2023/10/17 01:36:09;;;;;;;6.50;3.90;;;9.50;99.90;;;;;;5041012;28;20460;-88
2023/10/17 01:38:47;;;;;;;4.57;3.00;;;9.50;99.90;;;;;;5034309;28;20492;-88
2023/10/17 01:41:27;;;;;;;5.53;4.13;;;9.40;99.90;;;;;;5017517;28;22871;-86
2023/10/17 01:44:03;;;;;;;3.33;3.03;;;9.40;99.90;;;;;;5016742;28;20491;-86
2023/10/17 01:46:52;;;;;;;3.00;2.80;;;9.50;99.90;;;;;;5014538;28;20434;-86
2023/10/17 01:49:29;;;;;;;3.80;3.50;;;9.50;99.90;;;;;;5019934;28;20464;-87
2023/10/17 01:52:15;;;;;;;5.00;3.03;;;9.40;99.90;;;;;;5003224;28;20450;-87
2023/10/17 01:55:10;;;;;;;4.13;3.20;;;9.40;99.90;;;;;;5018277;28;20449;-88
2023/10/17 01:57:57;;;;;;;4.17;3.23;;;9.30;99.90;;;;;;5018446;28;20460;-85
2023/10/17 02:00:49;;;;;;;4.73;3.10;;;9.40;99.90;;;;;;5023138;28;20811;-85
2023/10/17 02:03:49;;;;;;;3.10;2.80;;;9.40;99.90;;;;;;5019395;28;20535;-87
2023/10/17 02:06:30;;;;;;;3.07;2.80;;;9.40;99.90;;;;;;5022083;28;20488;-85
2023/10/17 02:09:24;;;;;;;4.20;3.23;;;9.30;99.90;;;;;;5020847;28;21476;-89
2023/10/17 02:12:05;;;;;;;3.97;2.77;;;9.20;99.90;;;;;;5022736;28;20469;-87
2023/10/17 02:15:05;;;;;;;3.80;3.00;;;9.10;99.90;;;;;;5014542;28;21008;-88
2023/10/17 02:17:57;;;;;;;4.93;3.13;;;9.20;99.90;;;;;;5019924;28;20472;-86
2023/10/17 02:20:44;;;;;;;3.47;3.00;;;9.40;99.90;;;;;;5020425;28;20538;-86
2023/10/17 02:23:49;;;;;;;4.77;2.87;;;9.40;99.90;;;;;;5022053;28;20477;-86
2023/10/17 02:26:20;;;;;;;4.50;3.70;;;9.40;99.90;;;;;;5037552;28;20581;-87
2023/10/17 02:32:12;;;;;;;4.37;3.53;;;9.30;99.90;;;;;;5006910;28;20473;-87
2023/10/17 02:34:57;;;;;;;3.80;3.33;;;9.20;99.90;;;;;;5020078;28;20461;-85
2023/10/17 02:37:43;;;;;;;7.27;3.20;;;9.30;99.90;;;;;;5019772;28;20465;-84
2023/10/17 02:40:34;;;;;;;6.27;3.30;;;9.30;99.90;;;;;;5019353;28;20532;-86
2023/10/17 02:43:32;;;;;;;3.97;2.97;;;9.40;99.90;;;;;;5015277;28;20464;-84
2023/10/17 02:46:26;;;;;;;4.80;3.37;;;9.40;99.90;;;;;;5014587;28;20442;-84
2023/10/17 02:49:12;;;;;;;3.87;3.47;;;9.50;99.90;;;;;;5031616;28;20441;-84
2023/10/17 02:51:54;;;;;;;7.00;3.60;;;9.40;99.90;;;;;;5027129;28;21129;-85
2023/10/17 02:54:34;;;;;;;5.07;3.63;;;9.40;99.90;;;;;;5028435;28;20476;-86
2023/10/17 02:57:11;;;;;;;4.80;3.60;;;9.40;99.90;;;;;;5016306;28;20801;-86
2023/10/17 03:00:07;;;;;;;;;;;;;;;;;;;;;
2023/10/17 03:02:58;;;;;;;5.37;3.00;;;9.50;99.90;;;;;;5030068;28;20466;-87
2023/10/17 03:05:33;;;;;;;3.50;3.20;;;9.50;99.90;;;;;;5017778;28;20517;-85
2023/10/17 03:08:10;;;;;;;3.80;3.37;;;9.60;99.90;;;;;;5017565;28;20496;-87
2023/10/17 03:10:55;;;;;;;3.87;3.50;;;9.60;99.90;;;;;;5014551;28;20489;-85
2023/10/17 03:13:56;;;;;;;7.30;3.50;;;9.60;99.90;;;;;;5022298;28;20559;-87
2023/10/17 03:16:44;;;;;;;4.00;3.07;;;9.40;99.90;;;;;;5017721;28;20450;-84
2023/10/17 03:19:15;;;;;;;3.30;3.00;;;9.40;99.90;;;;;;5013489;28;20449;-84
2023/10/17 03:21:58;;;;;;;3.60;3.27;;;9.50;99.90;;;;;;5015833;28;20477;-84
2023/10/17 03:24:42;;;;;;;6.87;3.23;;;9.50;99.90;;;;;;5017902;28;20461;-84
2023/10/17 03:27:48;;;;;;;4.23;3.27;;;9.40;99.90;;;;;;5014838;28;20541;-85
2023/10/17 03:30:52;;;;;;;4.17;3.30;;;9.50;99.90;;;;;;5012008;28;20445;-87
2023/10/17 03:33:46;;;;;;;3.33;2.77;;;9.50;99.90;;;;;;4988640;28;20551;-85
2023/10/17 03:36:40;;;;;;;3.43;3.13;;;9.50;99.90;;;;;;5012246;28;20449;-84
2023/10/17 03:40:00;;;;;;;4.17;3.30;;;9.60;99.90;;;;;;5007136;28;21053;-87
2023/10/17 03:42:45;;;;;;;4.13;3.27;;;9.50;99.90;;;;;;5011640;28;20466;-84
2023/10/17 03:45:51;;;;;;;3.67;3.10;;;9.40;99.90;;;;;;5009550;28;20441;-87
2023/10/17 03:48:49;;;;;;;5.27;2.70;;;9.50;99.90;;;;;;5027810;28;20452;-87
2023/10/17 03:51:54;;;;;;;5.57;3.90;;;9.50;99.90;;;;;;5014344;28;20512;-85
2023/10/17 03:54:39;;;;;;;3.60;2.93;;;9.50;99.90;;;;;;5012173;28;20465;-86
2023/10/17 04:06:57;;;;;;;3.87;3.37;;;9.70;99.90;;;;;;5005602;28;20442;-85
2023/10/17 04:10:46;;;;;;;5.40;3.10;;;9.50;99.90;;;;;;5006627;28;20544;-87
2023/10/17 04:13:16;;;;;;;3.70;3.37;;;9.50;99.90;;;;;;5001137;28;20551;-84
2023/10/17 04:16:22;;;;;;;5.10;2.93;;;9.50;99.90;;;;;;4995344;28;20945;-85
2023/10/17 04:19:21;;;;;;;4.50;3.73;;;9.60;99.90;;;;;;5026325;28;20524;-85
2023/10/17 04:22:07;;;;;;;5.43;3.60;;;9.60;99.90;;;;;;5025968;28;20486;-87
2023/10/17 04:25:00;;;;;;;4.10;3.70;;;9.70;99.90;;;;;;5038225;28;20446;-85
2023/10/17 04:28:07;;;;;;;3.83;3.53;;;9.80;99.90;;;;;;5022301;28;20460;-86
2023/10/17 04:30:49;;;;;;;4.10;3.33;;;9.70;99.90;;;;;;5024367;28;21177;-82
2023/10/17 04:34:46;;;;;;;5.10;3.57;;;9.60;99.90;;;;;;5019707;28;20472;-87
2023/10/17 04:37:38;;;;;;;3.57;3.27;;;9.70;99.90;;;;;;5023315;28;20467;-86
2023/10/17 04:40:47;;;;;;;3.53;3.00;;;9.50;99.90;;;;;;5021405;28;20544;-87
2023/10/17 04:44:15;;;;;;;3.40;3.10;;;9.50;99.90;;;;;;5019790;28;20477;-85
2023/10/17 04:49:57;;;;;;;4.17;3.10;;;9.60;99.90;;;;;;5019367;28;20579;-85
2023/10/17 04:52:47;;;;;;;5.80;3.90;;;9.60;99.90;;;;;;5018956;28;20458;-83
2023/10/17 04:55:53;;;;;;;;;;;;;;;;;;;;;
2023/10/17 05:01:39;;;;;;;4.10;3.70;;;9.50;99.90;;;;;;5014882;28;20627;-85
2023/10/17 05:04:33;;;;;;;3.70;3.30;;;9.50;99.90;;;;;;5014993;28;20457;-85
2023/10/17 06:17:20;;;;;;;4.13;2.90;;;9.40;99.90;;;;;;5009469;28;20537;-86
2023/10/17 06:20:27;;;;;;;;;;;;;;;;;;;;;
2023/10/17 06:27:01;;;;;;;4.67;3.13;;;9.50;99.90;;;;;;5013914;28;20525;-86
2023/10/17 06:38:19;;;;;;;3.30;2.43;;;9.60;99.90;;;;;;5009838;28;20594;-85
2023/10/17 06:41:38;;;;;;;5.63;3.03;;;9.70;99.90;;;;;;5005108;28;20473;-87
2023/10/17 06:44:22;;;;;;;3.43;3.00;;;9.80;99.90;;;;;;5010455;28;20970;-85
2023/10/17 06:53:15;;;;;;;4.00;2.73;;;9.80;99.80;;;;;;4996586;28;20449;-86
2023/10/17 06:56:12;;;;;;;2.90;2.37;;;9.80;99.90;;;;;;5031323;28;20433;-85
2023/10/17 06:59:04;;;;;;;3.43;2.50;;;9.80;99.90;;;;;;5019377;28;20493;-84
2023/10/17 07:02:03;;;;;;;2.20;2.07;;;9.80;99.60;;;;;;5009284;28;20527;-86
2023/10/17 07:05:04;;;;;;;2.53;2.33;;;9.70;99.50;;;;;;4996998;28;20445;-85
2023/10/17 07:24:16;;;;;;;3.60;3.13;;;10.00;98.70;;;;;;5010216;28;20438;-84
2023/10/17 07:27:11;;;;;;;4.10;2.43;;;10.10;98.40;;;;;;5017163;28;20543;-86
2023/10/17 07:49:18;;;;;;;6.80;3.10;;;10.50;97.00;;;;;;5022566;28;20557;-85
2023/10/17 07:52:16;;;;;;;7.00;2.83;;;10.60;96.80;;;;;;5028197;28;20452;-86
2023/10/17 07:55:36;;;;;;;5.57;2.53;;;10.70;96.90;;;;;;5017328;28;20453;-86
2023/10/17 07:58:17;;;;;;;2.40;2.20;;;10.70;96.70;;;;;;5016749;28;20446;-86
2023/10/17 08:04:31;;;;;;;4.90;2.00;;;10.60;97.00;;;;;;5023588;28;20434;-84
2023/10/17 08:08:04;;;;;;;2.80;2.50;;;10.70;96.70;;;;;;5020202;28;20461;-84
2023/10/17 08:11:14;;;;;;;4.23;2.40;;;10.70;96.50;;;;;;5019328;28;20465;-84
2023/10/17 08:13:49;;;;;;;3.20;2.90;;;10.90;96.30;;;;;;5004206;28;20445;-84
2023/10/17 08:16:32;;;;;;;2.00;1.90;;;11.00;96.20;;;;;;5017349;28;20543;-83
2023/10/17 08:22:17;;;;;;;5.60;2.13;;;10.90;95.80;;;;;;5015573;28;20481;-83
2023/10/17 08:25:14;;;;;;;1.70;1.60;;;11.00;95.60;;;;;;5018239;28;20492;-85
2023/10/17 08:28:05;;;;;;;2.70;2.00;;;10.90;95.30;;;;;;5034369;28;20441;-84
2023/10/17 08:30:51;;;;;;;4.27;2.23;;;10.90;95.70;;;;;;5038040;28;20564;-87
2023/10/17 08:33:36;;;;;;;3.20;2.30;;;10.80;95.80;;;;;;5038630;28;20480;-86
2023/10/17 08:36:03;;;;;;;5.43;1.93;;;11.10;95.50;;;;;;5031696;28;20456;-87
2023/10/17 08:38:33;;;;;;;5.30;2.13;;;11.20;95.20;;;;;;5023987;28;20453;-85
2023/10/17 08:41:35;;;;;;;2.13;2.03;;;11.20;94.80;;;;;;5026357;28;20556;-87
2023/10/17 08:44:25;;;;;;;3.77;2.10;;;11.20;94.90;;;;;;5041613;28;20488;-85
2023/10/17 08:47:19;;;;;;;2.90;2.00;;;11.20;94.80;;;;;;5023143;28;20879;-85
2023/10/17 08:50:09;;;;;;;2.87;2.23;;;11.20;94.60;;;;;;5014495;28;20477;-85
2023/10/17 08:52:48;;;;;;;2.63;1.83;;;11.20;94.60;;;;;;5021960;28;20560;-87
2023/10/17 08:55:34;;;;;;;1.83;1.73;;;11.20;94.60;;;;;;5023659;28;20476;-86
2023/10/17 08:58:32;;;;;;;7.43;2.33;;;11.20;94.60;;;;;;5023374;28;20485;-85
2023/10/17 09:01:58;;;;;;;3.00;1.70;;;11.30;94.60;;;;;;5025689;28;20485;-86
2023/10/17 09:04:53;;;;;;;4.27;2.57;;;11.60;93.60;;;;;;5027525;28;20468;-87
2023/10/17 09:07:42;;;;;;;2.40;2.03;;;11.70;93.20;;;;;;5024155;28;20536;-86
2023/10/17 09:10:38;;;;;;;2.27;2.07;;;11.60;93.50;;;;;;5038717;28;20485;-87
2023/10/17 09:13:52;;;;;;;1.90;1.80;;;11.70;93.20;;;;;;5025009;28;20523;-85
2023/10/17 09:16:42;;;;;;;2.20;1.97;;;11.70;93.10;;;;;;5020919;28;20475;-87
2023/10/17 09:19:46;;;;;;;2.10;1.80;;;11.80;93.00;;;;;;5021473;28;21251;-87
2023/10/17 09:22:40;;;;;;;3.33;2.00;;;11.80;93.10;;;;;;5020307;28;20513;-86
2023/10/17 09:25:22;;;;;;;1.87;1.70;;;11.80;93.30;;;;;;5021881;28;21314;-86
2023/10/17 09:27:51;;;;;;;3.37;2.27;;;12.20;92.40;;;;;;5023725;28;20458;-85
2023/10/17 09:30:23;;;;;;;3.70;1.87;;;12.10;91.90;;;;;;5019513;28;20512;-85
2023/10/17 09:32:59;;;;;;;1.63;1.53;;;12.10;92.10;;;;;;5021458;28;20989;-84
2023/10/17 09:35:37;;;;;;;1.60;1.50;;;12.10;91.80;;;;;;5020823;28;20511;-84
2023/10/17 09:38:14;;;;;;;3.10;1.57;;;12.10;91.90;;;;;;5023884;28;20520;-86
2023/10/17 09:40:46;;;;;;;2.70;1.97;;;12.50;91.00;;;;;;5025051;28;20595;-85
2023/10/17 09:43:15;;;;;;;1.30;1.20;;;12.60;90.20;;;;;;5019143;28;20477;-84
2023/10/17 09:46:09;;;;;;;3.37;2.23;;;12.60;90.00;;;;;;5018022;28;20457;-85
2023/10/17 09:48:38;;;;;;;3.43;1.50;;;12.60;90.40;;;;;;5016024;28;20581;-83
2023/10/17 09:51:25;;;;;;;7.60;2.07;;;12.90;89.90;;;;;;5016227;28;20895;-84
2023/10/17 09:54:19;;;;;;;2.30;1.50;;;13.20;89.40;;;;;;5017611;28;20493;-84
2023/10/17 09:56:55;;;;;;;1.43;1.33;;;13.50;88.20;;;;;;5019577;28;20452;-84
2023/10/17 09:59:28;;;;;;;2.30;1.53;;;13.60;87.60;;;;;;5018369;28;20452;-84
2023/10/17 10:01:59;;;;;;;2.27;1.60;;;13.60;87.00;;;;;;5017499;28;20591;-85
2023/10/17 10:04:29;;;;;;;3.50;1.40;;;13.60;86.20;;;;;;5009360;28;21024;-87
2023/10/17 10:07:23;;;;;;;1.20;1.10;;;13.30;86.40;;;;;;5017639;28;20545;-85
2023/10/17 10:09:55;;;;;;;2.67;2.00;;;13.20;86.40;;;;;;5017161;28;20474;-82
2023/10/17 10:12:26;;;;;;;1.83;1.37;;;13.20;86.60;;;;;;5010310;28;20484;-85
2023/10/17 10:15:53;;;;;;;3.07;2.80;;;13.10;87.20;;;;;;5020001;28;20462;-87
2023/10/17 10:18:35;;;;;;;1.90;1.40;;;13.00;88.20;;;;;;5019128;28;20473;-84
2023/10/17 10:21:33;;;;;;;2.10;1.73;;;13.10;87.60;;;;;;5018425;28;20576;-84
2023/10/17 10:24:21;;;;;;;3.07;2.30;;;12.90;87.50;;;;;;5015426;28;21941;-85
2023/10/17 10:27:14;;;;;;;2.33;1.73;;;12.80;89.30;;;;;;5015056;28;20676;-84
2023/10/17 10:30:10;;;;;;;2.80;1.50;;;13.10;88.60;;;;;;5017030;28;20469;-85
2023/10/17 10:32:44;;;;;;;2.50;1.30;;;13.10;87.80;;;;;;5014837;28;20546;-83
2023/10/17 10:35:11;;;;;;;1.70;1.60;;;13.30;87.60;;;;;;5024406;28;20476;-84
2023/10/17 10:37:54;;;;;;;3.50;1.80;;;13.20;87.40;;;;;;5025810;28;20500;-84
2023/10/17 10:40:24;;;;;;;1.63;1.50;;;13.30;87.00;;;;;;5029726;28;20497;-85
2023/10/17 10:42:52;;;;;;;1.70;1.53;;;13.30;86.40;;;;;;5009804;28;20512;-83
2023/10/17 10:45:28;;;;;;;1.30;1.20;;;13.30;86.90;;;;;;5015841;28;21252;-85
2023/10/17 10:47:58;;;;;;;1.90;1.27;;;13.20;86.60;;;;;;5020729;28;20462;-84
2023/10/17 10:50:42;;;;;;;1.70;1.40;;;13.30;85.30;;;;;;5017663;28;20529;-84
2023/10/17 10:53:54;;;;;;;2.17;1.50;;;13.20;83.20;;;;;;5015931;28;20469;-85
2023/10/17 10:57:11;;;;;;;1.30;1.20;;;13.20;82.70;;;;;;5016778;28;20468;-86
2023/10/17 11:00:15;;;;;;;1.20;1.10;;;13.20;83.00;;;;;;5018302;28;20473;-85
2023/10/17 11:02:46;;;;;;;1.00;1.00;;;13.30;82.40;;;;;;5017941;28;20499;-83
2023/10/17 11:05:49;;;;;;;1.70;1.10;;;13.40;82.50;;;;;;5018208;28;20462;-82
2023/10/17 11:12:04;;;;;;;3.07;1.80;;;13.40;82.40;;;;;;4960427;28;20498;-86
2023/10/17 11:14:37;;;;;;;2.07;1.27;;;13.40;81.10;;;;;;4984106;28;20528;-84
2023/10/17 11:17:45;;;;;;;1.70;1.50;;;13.50;81.20;;;;;;5016136;28;20456;-84
2023/10/17 11:21:04;;;;;;;1.77;1.40;;;13.70;79.50;;;;;;5010459;28;20477;-84
2023/10/17 11:24:26;;;;;;;1.17;1.10;;;13.60;78.40;;;;;;4984177;28;20491;-84
2023/10/17 11:27:32;;;;;;;1.60;1.50;;;13.60;78.30;;;;;;5014628;28;20507;-84
2023/10/17 11:30:19;;;;;;;3.13;1.70;;;13.40;78.80;;;;;;5022979;28;20507;-86
2023/10/17 11:33:17;;;;;;;2.37;1.43;;;13.30;80.00;;;;;;5030005;28;20928;-85
2023/10/17 11:35:53;;;;;;;2.43;1.30;;;13.60;80.80;;;;;;5022124;28;20565;-85
2023/10/17 11:38:46;;;;;;;4.20;1.50;;;13.80;81.10;;;;;;5013223;28;20468;-85
2023/10/17 11:41:28;;;;;;;1.93;1.57;;;13.70;80.00;;;;;;5000848;28;20481;-85
2023/10/17 11:43:55;;;;;;;2.20;1.87;;;13.70;79.20;;;;;;5017663;28;20508;-84
2023/10/17 11:50:30;;;;;;;1.40;1.30;;;13.70;76.80;;;;;;5023104;28;20555;-88
2023/10/17 11:53:16;;;;;;;1.40;1.27;;;13.60;77.40;;;;;;5021112;28;21891;-84
2023/10/17 11:56:01;;;;;;;1.50;1.40;;;13.60;76.20;;;;;;5021647;28;20465;-85
2023/10/17 11:58:33;;;;;;;1.70;1.60;;;13.70;75.90;;;;;;5019045;28;20458;-85
2023/10/17 12:01:13;;;;;;;3.10;1.67;;;13.60;75.90;;;;;;5014852;28;20959;-86
2023/10/17 12:03:56;;;;;;;2.70;1.87;;;13.50;76.80;;;;;;5017888;28;21042;-86
2023/10/17 12:06:40;;;;;;;1.37;1.27;;;13.70;76.10;;;;;;5031178;28;20461;-86
2023/10/17 12:09:39;;;;;;;1.43;1.30;;;13.90;76.40;;;;;;5021124;28;20472;-85
2023/10/17 12:12:23;;;;;;;1.40;1.30;;;13.90;75.40;;;;;;5021476;28;20533;-85
2023/10/17 12:14:53;;;;;;;2.87;1.80;;;14.10;76.00;;;;;;5033503;28;20510;-85
2023/10/17 12:17:29;;;;;;;1.50;1.40;;;13.90;74.80;;;;;;5022187;28;20465;-86
2023/10/17 12:20:25;;;;;;;1.50;1.20;;;14.10;74.40;;;;;;5020190;28;20480;-84
2023/10/17 12:27:12;;;;;;;1.63;1.20;;;14.30;71.80;;;;;;4886681;29;20452;-86
2023/10/17 12:34:27;;;;;;;2.00;1.23;;;14.30;69.40;;;;;;4861710;29;20448;-86
2023/10/17 12:40:38;;;;;;;3.00;1.40;;;14.30;70.20;;;;;;4875538;29;20527;-87
2023/10/17 12:43:11;;;;;;;1.80;1.70;;;14.40;70.90;;;;;;4878999;29;20495;-86
2023/10/17 12:45:50;;;;;;;3.03;1.30;;;14.50;70.20;;;;;;4943166;29;20470;-88
2023/10/17 12:48:31;;;;;;;1.60;1.50;;;14.70;69.40;;;;;;4941364;29;20467;-88
2023/10/17 12:54:26;;;;;;;1.30;1.20;;;14.80;68.20;;;;;;4948975;28;20461;-86
2023/10/17 12:56:54;;;;;;;2.00;1.33;;;14.90;67.60;;;;;;4948181;28;20453;-84
2023/10/17 13:03:08;;;;;;;1.60;1.40;;;15.10;66.80;;;;;;4891661;29;20479;-86
2023/10/17 13:09:13;;;;;;;1.40;1.23;;;15.10;66.70;;;;;;4981728;28;21462;-86
2023/10/17 13:12:08;;;;;;;1.57;1.10;;;15.20;66.50;;;;;;4969714;28;20452;-86
2023/10/17 13:15:05;;;;;;;1.40;1.30;;;15.50;65.20;;;;;;5015820;28;20441;-87
2023/10/17 13:18:12;;;;;;;1.53;1.43;;;15.50;64.50;;;;;;5028231;28;20449;-87
2023/10/17 13:21:27;;;;;;;1.40;1.30;;;15.70;63.80;;;;;;5025073;28;20477;-85
2023/10/17 13:24:15;;;;;;;1.40;1.30;;;15.60;63.00;;;;;;5027256;28;20500;-86
2023/10/17 13:27:04;;;;;;;2.47;1.47;;;15.60;63.90;;;;;;5029146;28;20535;-86
2023/10/17 13:30:25;;;;;;;1.43;1.30;;;15.60;64.20;;;;;;5021645;28;20465;-88
2023/10/17 13:39:28;;;;;;;2.40;1.50;;;15.60;62.10;;;;;;5020580;28;20839;-87
2023/10/17 13:42:17;;;;;;;1.30;1.20;;;15.40;62.90;;;;;;5018732;28;20487;-88
2023/10/17 13:48:28;;;;;;;1.20;1.10;;;15.30;62.60;;;;;;4978165;28;20462;-85
2023/10/17 13:51:12;;;;;;;1.53;1.30;;;15.30;62.70;;;;;;4969360;28;20670;-86
2023/10/17 13:54:27;;;;;;;2.57;1.40;;;15.30;63.10;;;;;;4909505;28;20909;-85
2023/10/17 14:01:06;;;;;;;1.73;1.00;;;15.10;63.90;;;;;;4978931;28;20490;-85
2023/10/17 14:04:04;;;;;;;1.20;1.10;;;15.20;62.90;;;;;;5015354;28;20543;-86
2023/10/17 14:07:12;;;;;;;1.13;0.80;;;15.20;61.80;;;;;;4997372;28;20535;-85
2023/10/17 14:13:23;;;;;;;3.33;1.30;;;15.00;61.10;;;;;;4997170;28;20444;-85
2023/10/17 14:16:14;;;;;;;1.10;1.03;;;14.90;61.80;;;;;;5005624;28;20434;-86
2023/10/17 14:19:18;;;;;;;1.20;1.10;;;15.10;62.10;;;;;;5017268;28;21242;-87
2023/10/17 14:26:15;;;;;;;3.43;1.30;;;15.00;62.50;;;;;;4989485;28;20541;-85
2023/10/17 14:29:07;;;;;;;1.13;1.03;;;15.10;61.40;;;;;;5020081;28;20491;-84
2023/10/17 14:32:11;;;;;;;1.83;1.00;;;15.00;60.90;;;;;;4999148;28;20867;-87
2023/10/17 14:35:04;;;;;;;2.40;1.67;;;15.10;60.90;;;;;;5011948;28;20487;-87
2023/10/17 14:38:01;;;;;;;2.33;1.40;;;15.10;59.90;;;;;;5017816;28;20797;-86
2023/10/17 14:41:09;;;;;;;1.77;1.40;;;15.10;60.00;;;;;;5016376;28;20534;-86
2023/10/17 14:44:29;;;;;;;1.33;1.17;;;15.10;60.30;;;;;;5009689;28;20522;-84
2023/10/17 14:47:54;;;;;;;;;;;;;;;;;;;;;
2023/10/17 14:51:25;;;;;;;2.73;1.60;;;15.00;59.60;;;;;;5013389;28;20531;-85
2023/10/17 14:54:28;;;;;;;2.43;1.33;;;15.00;60.00;;;;;;5018022;28;20458;-85
2023/10/17 14:57:52;;;;;;;1.20;1.10;;;14.90;60.30;;;;;;5017979;28;20457;-86
2023/10/17 15:01:10;;;;;;;1.97;0.90;;;15.00;60.40;;;;;;5002431;28;20477;-85
2023/10/17 15:04:07;;;;;;;1.77;1.33;;;15.10;60.70;;;;;;4998369;28;20476;-86
2023/10/17 15:06:58;;;;;;;1.67;1.20;;;15.20;61.10;;;;;;4949268;28;20456;-86
2023/10/17 15:19:15;;;;;;;3.70;1.30;;;15.10;60.30;;;;;;4998964;28;20552;-87
2023/10/17 15:22:11;;;;;;;1.40;1.27;;;15.10;59.40;;;;;;5007115;28;20468;-87
2023/10/17 15:25:34;;;;;;;;;;;;;;;;;;;;;
2023/10/17 15:28:42;;;;;;;1.50;1.10;;;15.00;60.10;;;;;;4962332;28;20510;-88
2023/10/17 15:32:10;;;;;;;1.07;0.90;;;15.00;59.80;;;;;;4945342;28;20484;-82
2023/10/17 15:35:23;;;;;;;2.07;1.80;;;14.80;60.00;;;;;;4887856;29;20438;-83
2023/10/17 15:45:15;;;;;;;1.17;1.07;;;14.80;61.20;;;;;;4933122;28;20983;-84
2023/10/17 15:51:42;;;;;;;1.93;1.00;;;14.70;60.20;;;;;;4852143;29;20575;-84
2023/10/17 15:54:44;;;;;;;2.20;1.00;;;14.60;60.90;;;;;;4849151;29;20505;-84
2023/10/17 15:57:55;;;;;;;2.20;1.27;;;14.70;61.30;;;;;;4852495;29;20457;-87
2023/10/17 16:00:54;;;;;;;1.77;1.50;;;14.60;61.60;;;;;;4847607;29;20611;-85
2023/10/17 16:04:00;;;;;;;1.37;1.27;;;14.70;61.70;;;;;;4933390;28;20504;-84
2023/10/17 16:07:08;;;;;;;3.20;1.20;;;14.70;62.00;;;;;;4920967;28;20497;-85
2023/10/17 16:10:27;;;;;;;2.50;1.53;;;14.60;61.20;;;;;;4921430;28;20468;-85
2023/10/17 16:13:58;;;;;;;4.50;1.83;;;14.50;63.20;;;;;;4943170;28;20471;-87
2023/10/17 16:17:25;;;;;;;3.73;1.23;;;14.50;63.00;;;;;;4943808;28;20453;-85
2023/10/17 16:24:22;;;;;;;1.23;1.10;;;14.60;63.80;;;;;;5022510;28;20592;-85
2023/10/17 16:27:44;;;;;;;;;;;;;;;;;;;;;
2023/10/17 16:31:11;;;;;;;1.57;1.47;;;14.40;64.50;;;;;;5015997;28;20512;-86
2023/10/17 16:38:15;;;;;;;1.90;1.53;;;14.20;65.40;;;;;;4986768;28;20429;-86
2023/10/17 16:41:44;;;;;;;;;;;;;;;;;;;;;
2023/10/17 16:44:35;;;;;;;1.67;1.37;;;13.90;66.70;;;;;;5011286;28;20465;-86
2023/10/17 16:48:04;;;;;;;1.70;1.53;;;14.00;66.60;;;;;;5025548;28;20438;-86
2023/10/17 16:51:19;;;;;;;1.73;1.30;;;13.90;66.40;;;;;;5022459;28;20478;-86
2023/10/17 16:54:03;;;;;;;1.80;1.40;;;13.90;65.90;;;;;;4998022;28;20511;-84
2023/10/17 16:57:39;;;;;;;1.53;1.33;;;13.90;66.20;;;;;;5014609;28;20443;-85
2023/10/17 17:00:16;;;;;;;4.70;1.70;;;13.80;66.50;;;;;;5023913;28;20585;-84
2023/10/17 17:03:53;;;;;;;3.10;1.40;;;13.70;66.60;;;;;;5005284;28;20485;-85
2023/10/17 17:07:27;;;;;;;;;;;;;;;;;;;;;
2023/10/17 17:10:45;;;;;;;3.03;1.67;;;13.50;67.30;;;;;;5010929;28;20457;-84
2023/10/17 17:13:47;;;;;;;6.63;3.40;;;13.50;67.60;;;;;;5008813;28;20450;-85
2023/10/17 17:29:15;;;;;;;2.73;2.07;;;13.30;70.00;;;;;;4893473;29;20451;-87
2023/10/17 17:32:21;;;;;;;2.03;1.83;;;13.30;70.60;;;;;;4982936;28;20505;-85
2023/10/17 17:35:04;;;;;;;2.43;2.23;;;13.10;71.50;;;;;;5017790;28;21818;-87
2023/10/17 17:38:36;;;;;;;3.30;1.83;;;13.10;72.20;;;;;;4991138;28;20594;-84
2023/10/17 17:41:55;;;;;;;2.40;2.20;;;13.00;73.00;;;;;;4994958;28;20493;-86
2023/10/17 17:44:47;;;;;;;2.67;2.33;;;13.00;73.80;;;;;;5011651;28;20497;-87
2023/10/17 17:51:11;;;;;;;4.10;2.20;;;12.90;76.30;;;;;;5027219;28;20478;-84
2023/10/17 17:54:15;;;;;;;2.40;2.03;;;12.90;77.40;;;;;;5006155;28;20521;-83
2023/10/17 17:56:54;;;;;;;2.80;2.23;;;12.80;78.10;;;;;;5003591;28;20454;-83
2023/10/17 18:02:31;;;;;;;;;;;;;;;;;;;;;
2023/10/17 18:05:54;;;;;;;3.57;2.70;;;12.60;81.50;;;;;;5032117;28;20440;-86
2023/10/17 18:19:57;;;;;;;3.40;2.20;;;12.30;84.70;;;;;;4985403;28;20513;-86
2023/10/17 18:23:16;;;;;;;2.50;2.30;;;12.20;85.70;;;;;;4973839;28;20482;-85
2023/10/17 18:26:19;;;;;;;2.70;2.33;;;12.20;86.40;;;;;;5000137;28;20900;-85
2023/10/17 18:29:29;;;;;;;2.67;2.47;;;12.00;86.40;;;;;;4998609;28;20465;-84
2023/10/17 18:32:45;;;;;;;4.93;3.30;;;12.10;87.00;;;;;;4978530;28;20453;-87
2023/10/17 18:39:02;;;;;;;4.77;3.00;;;12.00;87.30;;;;;;4985614;28;20483;-84
2023/10/17 18:42:34;;;;;;;2.70;2.50;;;11.90;88.00;;;;;;5003134;28;20525;-88
2023/10/17 18:45:37;;;;;;;2.73;2.53;;;11.90;88.20;;;;;;5002847;28;20463;-84
2023/10/17 18:48:45;;;;;;;2.43;2.23;;;11.80;88.30;;;;;;5003766;28;20465;-85
2023/10/17 18:54:45;;;;;;;3.37;2.87;;;12.00;88.60;;;;;;5001152;28;20469;-85
2023/10/17 19:01:35;;;;;;;3.20;2.67;;;11.90;88.70;;;;;;4996152;28;20500;-84
2023/10/17 19:04:35;;;;;;;3.50;2.47;;;11.70;89.30;;;;;;4992768;28;20493;-86
2023/10/17 19:07:39;;;;;;;;;;;;;;;;;;;;;
2023/10/17 19:10:40;;;;;;;3.23;2.33;;;11.50;90.60;;;;;;4975413;28;20454;-88
2023/10/17 19:13:42;;;;;;;2.90;2.70;;;11.60;90.50;;;;;;4994604;28;21073;-84
2023/10/17 19:16:43;;;;;;;5.03;3.10;;;11.70;90.40;;;;;;4991165;28;20491;-84
2023/10/17 19:19:30;;;;;;;2.77;2.57;;;11.60;90.60;;;;;;4985121;28;20453;-85
2023/10/17 19:22:29;;;;;;;5.00;3.67;;;11.70;90.70;;;;;;4997039;28;20467;-86
2023/10/17 19:32:14;;;;;;;3.43;3.00;;;11.60;91.00;;;;;;5004896;28;20454;-86
2023/10/17 19:35:36;;;;;;;3.53;3.23;;;11.60;91.00;;;;;;4929893;28;20498;-85
2023/10/17 19:38:47;;;;;;;3.20;3.00;;;11.50;91.10;;;;;;4963116;28;20918;-88
2023/10/17 19:41:35;;;;;;;5.20;3.77;;;11.60;91.20;;;;;;4966951;28;21934;-88
2023/10/17 19:44:25;;;;;;;3.60;3.30;;;11.60;91.40;;;;;;4983710;28;20482;-84
2023/10/17 19:47:14;;;;;;;3.77;3.47;;;11.50;91.60;;;;;;5009196;28;20449;-87
2023/10/17 19:50:02;;;;;;;4.37;3.67;;;11.50;91.80;;;;;;4992259;28;20470;-88
2023/10/17 19:52:45;;;;;;;6.13;3.90;;;11.30;91.70;;;;;;5023555;28;20446;-87
2023/10/17 19:55:43;;;;;;;4.47;4.00;;;11.20;91.90;;;;;;5012197;28;20591;-85
2023/10/17 20:05:16;;;;;;;4.67;3.63;;;11.10;92.60;;;;;;5009907;28;20478;-84
2023/10/17 20:08:21;;;;;;;8.47;4.30;;;11.20;92.90;;;;;;5001477;28;20458;-86
2023/10/17 20:11:45;;;;;;;5.57;3.70;;;11.20;92.90;;;;;;5000589;28;20484;-85
2023/10/17 20:14:43;;;;;;;4.07;3.67;;;11.10;93.30;;;;;;5014553;28;20545;-85